createdAt,value
2022-10-12T00:04:27.528Z,2.83
2022-10-12T00:09:32.547Z,2.70
2022-10-12T00:14:37.921Z,3.57
2022-10-12T00:19:41.585Z,3.53
2022-10-12T00:24:46.496Z,3.50
2022-10-12T00:29:50.012Z,3.33
2022-10-12T00:34:53.524Z,3.23
2022-10-12T00:39:58.458Z,3.13
2022-10-12T00:45:01.895Z,2.90
2022-10-12T00:50:11.127Z,3.43
2022-10-12T00:55:20.537Z,3.27
2022-10-12T01:00:24.442Z,3.60
2022-10-12T01:05:28.096Z,3.70
2022-10-12T01:10:33.013Z,3.50
2022-10-12T01:15:41.104Z,3.23
2022-10-12T01:20:55.034Z,3.50
2022-10-12T01:26:21.777Z,4.43
2022-10-12T01:31:32.947Z,4.40
2022-10-12T01:36:41.425Z,4.73
2022-10-12T01:41:48.760Z,4.13
2022-10-12T01:46:55.015Z,4.43
2022-10-12T01:52:13.101Z,4.23
2022-10-12T01:57:23.276Z,4.63
2022-10-12T02:02:36.107Z,4.23
2022-10-12T02:07:44.159Z,4.30
2022-10-12T02:12:50.890Z,4.47
2022-10-12T02:17:55.858Z,4.10
2022-10-12T02:22:59.431Z,4.07
2022-10-12T02:28:07.477Z,3.87
2022-10-12T02:33:16.506Z,3.40
2022-10-12T02:38:23.844Z,4.03
2022-10-12T02:43:32.563Z,4.50
2022-10-12T02:48:40.326Z,4.40
2022-10-12T02:53:45.265Z,4.90
2022-10-12T02:58:49.369Z,4.50
2022-10-12T03:03:54.299Z,4.30
2022-10-12T03:08:57.717Z,4.13
2022-10-12T03:14:01.199Z,4.20
2022-10-12T03:19:06.042Z,4.10
2022-10-12T03:24:09.619Z,4.33
2022-10-12T03:29:13.164Z,4.10
2022-10-12T03:34:18.013Z,4.00
2022-10-12T03:39:24.145Z,4.20
2022-10-12T03:44:28.126Z,4.30
2022-10-12T03:49:39.825Z,4.00
2022-10-12T03:54:43.357Z,4.23
2022-10-12T03:59:46.801Z,4.60
2022-10-12T04:04:51.690Z,4.60
2022-10-12T04:09:55.113Z,4.80
2022-10-12T04:14:58.537Z,4.80
2022-10-12T04:20:03.538Z,4.27
2022-10-12T04:25:07.760Z,4.10
2022-10-12T04:30:12.803Z,3.73
2022-10-12T04:35:17.885Z,3.90
2022-10-12T04:40:21.405Z,4.47
2022-10-12T04:45:24.918Z,3.93
2022-10-12T04:50:30.242Z,4.23
2022-10-12T04:55:33.851Z,3.53
2022-10-12T05:00:37.343Z,4.20
2022-10-12T05:05:42.371Z,3.67
2022-10-12T05:10:46.546Z,3.67
2022-10-12T05:15:50.017Z,22.60
2022-10-12T05:20:57.207Z,4.00
2022-10-12T05:26:00.811Z,3.43
2022-10-12T05:31:04.680Z,4.97
2022-10-12T05:36:10.708Z,4.23
2022-10-12T05:41:14.471Z,3.60
2022-10-12T05:46:18.002Z,5.77
2022-10-12T05:51:27.922Z,4.03
2022-10-12T05:56:32.624Z,4.13
2022-10-12T06:01:36.301Z,5.10
2022-10-12T06:06:41.288Z,4.33
2022-10-12T06:11:44.753Z,4.20
2022-10-12T06:16:51.137Z,3.60
2022-10-12T06:21:59.416Z,4.67
2022-10-12T06:27:02.882Z,3.93
2022-10-12T06:32:06.322Z,2.57
2022-10-12T06:37:30.689Z,4.00
2022-10-12T06:42:34.832Z,4.20
2022-10-12T06:47:38.332Z,4.70
2022-10-12T06:52:43.757Z,4.53
2022-10-12T06:57:47.308Z,4.00
2022-10-12T07:02:51.419Z,4.80
2022-10-12T07:07:56.547Z,10.10
2022-10-12T07:13:00.069Z,8.60
2022-10-12T07:18:04.309Z,5.93
2022-10-12T07:23:09.264Z,5.00
2022-10-12T07:28:12.792Z,4.87
2022-10-12T07:33:16.240Z,5.37
2022-10-12T07:38:21.506Z,5.97
2022-10-12T07:43:25.010Z,6.23
2022-10-12T07:48:28.722Z,6.07
2022-10-12T07:53:35.438Z,5.50
2022-10-12T07:58:38.957Z,6.10
2022-10-12T08:03:42.363Z,6.47
2022-10-12T08:08:47.739Z,5.53
2022-10-12T08:13:51.918Z,4.83
2022-10-12T08:18:55.368Z,6.80
2022-10-12T08:24:00.315Z,7.50
2022-10-12T08:29:04.773Z,7.67
2022-10-12T08:34:08.503Z,7.27
2022-10-12T08:39:13.467Z,7.30
2022-10-12T08:44:34.960Z,7.87
2022-10-12T08:49:40.444Z,6.90
2022-10-12T08:54:47.206Z,6.63
2022-10-12T08:59:50.659Z,6.47
2022-10-12T09:04:58.443Z,6.37
2022-10-12T09:10:11.781Z,6.93
2022-10-12T09:15:18.170Z,4.97
2022-10-12T09:20:23.435Z,4.47
2022-10-12T09:25:29.842Z,4.10
2022-10-12T09:30:36.741Z,4.57
2022-10-12T09:35:42.077Z,4.03
2022-10-12T09:40:47.710Z,4.03
2022-10-12T09:45:51.406Z,3.90
2022-10-12T09:50:58.140Z,4.13
2022-10-12T09:56:16.749Z,3.90
2022-10-12T10:01:25.557Z,3.57
2022-10-12T10:06:28.996Z,3.30
2022-10-12T10:11:34.089Z,3.03
2022-10-12T10:16:50.088Z,3.10
2022-10-12T10:21:54.879Z,3.67
2022-10-12T10:27:01.650Z,3.30
2022-10-12T10:32:29.154Z,3.07
2022-10-12T10:37:33.281Z,3.43
2022-10-12T10:42:38.190Z,3.37
2022-10-12T10:47:46.929Z,2.97
2022-10-12T10:52:56.994Z,3.40
2022-10-12T10:58:06.274Z,3.30
2022-10-12T11:03:16.144Z,3.63
2022-10-12T11:08:24.216Z,3.50
2022-10-12T11:13:34.194Z,2.73
2022-10-12T11:18:42.838Z,2.83
2022-10-12T11:23:52.116Z,3.30
2022-10-12T11:29:00.286Z,2.97
2022-10-12T11:34:12.660Z,2.90
2022-10-12T11:39:22.818Z,2.73
2022-10-12T11:44:31.699Z,3.20
2022-10-12T11:49:41.636Z,3.50
2022-10-12T11:54:50.494Z,2.60
2022-10-12T12:00:00.559Z,2.87
2022-10-12T12:05:05.425Z,3.53
2022-10-12T12:10:41.844Z,3.40
2022-10-12T12:16:30.378Z,3.07
2022-10-12T12:22:12.381Z,3.47
2022-10-12T12:27:23.960Z,3.40
2022-10-12T12:32:43.276Z,3.20
2022-10-12T12:37:47.558Z,2.50
2022-10-12T12:42:51.029Z,2.60
2022-10-12T12:47:55.884Z,3.17
2022-10-12T12:53:05.959Z,2.90
2022-10-12T12:58:41.284Z,2.97
2022-10-12T13:04:06.118Z,2.93
2022-10-12T13:09:52.568Z,2.90
2022-10-12T13:15:17.694Z,4.13
2022-10-12T13:20:26.995Z,3.70
2022-10-12T13:25:35.617Z,3.43
2022-10-12T13:30:44.846Z,3.63
2022-10-12T13:35:54.065Z,4.30
2022-10-12T13:41:03.530Z,3.93
2022-10-12T13:46:09.003Z,3.60
2022-10-12T13:51:24.946Z,3.60
2022-10-12T13:56:30.426Z,3.37
2022-10-12T14:01:35.703Z,3.80
2022-10-12T14:06:40.571Z,3.73
2022-10-12T14:11:44.705Z,3.80
2022-10-12T14:16:48.203Z,4.13
2022-10-12T14:22:01.796Z,3.90
2022-10-12T14:27:07.397Z,3.53
2022-10-12T14:32:39.490Z,3.63
2022-10-12T14:37:44.525Z,4.37
2022-10-12T14:42:58.684Z,3.77
2022-10-12T14:48:02.911Z,4.10
2022-10-12T14:53:12.956Z,5.10
2022-10-12T14:58:17.956Z,4.40
2022-10-12T15:03:21.361Z,4.60
2022-10-12T15:08:26.298Z,4.90
2022-10-12T15:13:29.694Z,5.40
2022-10-12T15:18:33.148Z,5.27
2022-10-12T15:23:38.788Z,4.17
2022-10-12T15:28:43.409Z,4.27
2022-10-12T15:33:46.866Z,4.70
2022-10-12T15:38:51.769Z,6.00
2022-10-12T15:43:55.094Z,5.27
2022-10-12T15:48:58.828Z,5.27
2022-10-12T15:54:03.902Z,5.70
2022-10-12T15:59:07.990Z,6.13
2022-10-12T16:04:15.891Z,6.50
2022-10-12T16:09:20.832Z,6.30
2022-10-12T16:14:24.747Z,6.27
2022-10-12T16:19:28.497Z,7.00
2022-10-12T16:24:38.806Z,6.73
2022-10-12T16:29:42.428Z,7.40
2022-10-12T16:34:45.985Z,7.23
2022-10-12T16:39:51.353Z,7.20
2022-10-12T16:44:54.888Z,8.10
2022-10-12T16:49:59.081Z,6.67
2022-10-12T16:55:07.003Z,8.10
2022-10-12T17:00:14.229Z,7.83
2022-10-12T17:05:18.058Z,7.77
2022-10-12T17:10:23.320Z,7.60
2022-10-12T17:15:27.454Z,8.10
2022-10-12T17:20:39.646Z,6.63
2022-10-12T17:26:01.766Z,8.70
2022-10-12T17:31:10.720Z,9.17
2022-10-12T17:36:15.430Z,8.43
2022-10-12T17:41:21.851Z,9.10
2022-10-12T17:46:26.170Z,8.70
2022-10-12T17:51:30.258Z,8.50
2022-10-12T17:56:35.707Z,9.70
2022-10-12T18:01:46.883Z,8.70
2022-10-12T18:06:52.239Z,8.90
2022-10-12T18:11:57.479Z,9.20
2022-10-12T18:17:01.720Z,9.23
2022-10-12T18:22:05.543Z,9.87
2022-10-12T18:27:13.026Z,9.33
2022-10-12T18:32:18.634Z,9.17
2022-10-12T18:37:31.341Z,10.27
2022-10-12T18:42:41.745Z,10.03
2022-10-12T18:47:47.271Z,10.47
2022-10-12T18:52:52.500Z,8.93
2022-10-12T18:57:58.918Z,10.50
2022-10-12T19:03:03.550Z,10.43
2022-10-12T19:08:08.838Z,10.07
2022-10-12T19:13:15.321Z,9.40
2022-10-12T19:18:23.427Z,9.60
2022-10-12T19:23:28.145Z,9.00
2022-10-12T19:28:35.632Z,8.67
2022-10-12T19:33:40.462Z,9.23
2022-10-12T19:38:46.581Z,8.13
2022-10-12T19:43:55.167Z,9.10
2022-10-12T19:49:01.311Z,8.00
2022-10-12T19:54:07.762Z,8.57
2022-10-12T19:59:30.154Z,9.20
2022-10-12T20:04:34.689Z,8.03
2022-10-12T20:09:39.708Z,6.90
2022-10-12T20:14:44.991Z,5.57
2022-10-12T20:19:49.907Z,5.10
2022-10-12T20:24:53.564Z,5.33
2022-10-12T20:29:58.695Z,5.47
2022-10-12T20:35:02.430Z,5.20
2022-10-12T20:40:06.851Z,5.10
2022-10-12T20:45:14.500Z,5.90
2022-10-12T20:50:18.109Z,5.77
2022-10-12T20:55:21.574Z,6.40
2022-10-12T21:00:26.746Z,5.00
2022-10-12T21:05:30.224Z,5.80
2022-10-12T21:10:37.903Z,5.30
2022-10-12T21:15:51.447Z,5.57
2022-10-12T21:20:56.811Z,6.33
2022-10-12T21:26:00.366Z,6.43
2022-10-12T21:31:05.548Z,6.77
2022-10-12T21:36:10.695Z,6.70
2022-10-12T21:41:15.258Z,7.23
2022-10-12T21:46:22.636Z,5.20
2022-10-12T21:51:27.236Z,6.57
2022-10-12T21:56:33.029Z,6.90
2022-10-12T22:01:40.574Z,6.90
2022-10-12T22:06:44.751Z,7.03
2022-10-12T22:11:49.475Z,6.67
2022-10-12T22:16:54.651Z,6.80
2022-10-12T22:21:58.343Z,6.37
2022-10-12T22:27:01.936Z,6.97
2022-10-12T22:37:48.819Z,6.77
2022-10-12T22:42:52.452Z,6.50
2022-10-12T22:47:57.657Z,6.07
2022-10-12T22:53:01.093Z,5.63
2022-10-12T22:58:04.618Z,6.50
2022-10-12T23:03:09.736Z,6.63
2022-10-12T23:08:16.532Z,6.80
2022-10-12T23:13:20.436Z,7.13
2022-10-12T23:18:25.544Z,7.47
2022-10-12T23:23:29.194Z,7.30
2022-10-12T23:28:32.882Z,6.50
2022-10-12T23:33:38.057Z,6.23
2022-10-12T23:38:43.230Z,5.70
2022-10-12T23:43:46.703Z,5.50
2022-10-12T23:48:51.663Z,5.67
2022-10-12T23:53:55.301Z,6.87
2022-10-12T23:58:58.960Z,6.33
